ASA65 PAJN-PANC
Flight info
| Callsign | ASA65 |
|---|---|
| Flight time | 1h 26m |
| Altitude | 40000 |
| Route | CHLKT2 ALATY JOH PTERS3 |
| Aircraft | B737/M-SDE2E3FGHIRWXY/LB1 |
Departure
| Time | 2026-04-26 19:53 |
|---|---|
| Airport | Juneau International Airport (PAJN) |
Arrival
| Time | 2026-04-26 21:19 |
|---|---|
| Airport | Ted Stevens Anchorage International Airport (PANC) |
| Time | Latitude | Longitude | Altitude | Speed | Heading |
|---|---|---|---|---|---|
| 2026-04-26 19:15 | 58.35847 | -134.58429 | 33 ft | 0 kts | 48° |
| 2026-04-26 19:44 | 58.35832 | -134.58460 | 32 ft | 4 kts | 48° |
| 2026-04-26 19:44 | 58.35814 | -134.58498 | 32 ft | 4 kts | 48° |
| 2026-04-26 19:44 | 58.35796 | -134.58536 | 31 ft | 4 kts | 48° |
| 2026-04-26 19:45 | 58.35787 | -134.58556 | 33 ft | 0 kts | 48° |
| 2026-04-26 19:48 | 58.35794 | -134.58494 | 33 ft | 10 kts | 97° |
| 2026-04-26 19:48 | 58.35774 | -134.58352 | 32 ft | 11 kts | 108° |
| 2026-04-26 19:49 | 58.35714 | -134.58296 | 32 ft | 10 kts | 167° |
| 2026-04-26 19:49 | 58.35685 | -134.58188 | 33 ft | 10 kts | 103° |
| 2026-04-26 19:49 | 58.35666 | -134.58040 | 33 ft | 17 kts | 103° |
| 2026-04-26 19:49 | 58.35632 | -134.57771 | 32 ft | 23 kts | 103° |
| 2026-04-26 19:50 | 58.35590 | -134.57481 | 33 ft | 22 kts | 106° |
| 2026-04-26 19:50 | 58.35547 | -134.57199 | 33 ft | 22 kts | 104° |
| 2026-04-26 19:50 | 58.35509 | -134.56923 | 33 ft | 21 kts | 104° |
| 2026-04-26 19:50 | 58.35472 | -134.56656 | 33 ft | 21 kts | 105° |
| 2026-04-26 19:51 | 58.35433 | -134.56374 | 33 ft | 25 kts | 104° |
| 2026-04-26 19:51 | 58.35388 | -134.56047 | 31 ft | 25 kts | 105° |
| 2026-04-26 19:51 | 58.35344 | -134.55738 | 33 ft | 23 kts | 105° |
| 2026-04-26 19:51 | 58.35303 | -134.55446 | 33 ft | 22 kts | 105° |
| 2026-04-26 19:52 | 58.35256 | -134.55247 | 33 ft | 13 kts | 160° |
| 2026-04-26 19:52 | 58.35177 | -134.55307 | 33 ft | 13 kts | 241° |
| 2026-04-26 19:52 | 58.35203 | -134.55537 | 31 ft | 38 kts | 285° |
| 2026-04-26 19:52 | 58.35344 | -134.56549 | 35 ft | 117 kts | 285° |
| 2026-04-26 19:53 | 58.35595 | -134.58377 | 344 ft | 153 kts | 284° |
| 2026-04-26 19:53 | 58.35835 | -134.60195 | 1506 ft | 136 kts | 283° |
| 2026-04-26 19:53 | 58.36071 | -134.62055 | 2148 ft | 152 kts | 280° |
| 2026-04-26 19:53 | 58.36261 | -134.64113 | 2795 ft | 168 kts | 280° |
| 2026-04-26 19:54 | 58.36514 | -134.66434 | 3248 ft | 197 kts | 281° |
| 2026-04-26 19:54 | 58.36604 | -134.69221 | 3462 ft | 225 kts | 268° |
| 2026-04-26 19:54 | 58.36522 | -134.72275 | 4141 ft | 234 kts | 274° |
| 2026-04-26 19:54 | 58.36932 | -134.75397 | 4689 ft | 251 kts | 288° |
| 2026-04-26 19:55 | 58.37510 | -134.78600 | 5547 ft | 259 kts | 288° |
| 2026-04-26 19:55 | 58.38102 | -134.81853 | 6604 ft | 262 kts | 289° |
| 2026-04-26 19:55 | 58.38701 | -134.85144 | 7612 ft | 264 kts | 289° |
| 2026-04-26 19:55 | 58.39307 | -134.88480 | 8631 ft | 268 kts | 289° |
| 2026-04-26 19:56 | 58.39911 | -134.91809 | 9652 ft | 271 kts | 289° |
| 2026-04-26 19:56 | 58.40532 | -134.95243 | 10498 ft | 280 kts | 288° |
| 2026-04-26 19:56 | 58.41197 | -134.98926 | 10767 ft | 309 kts | 288° |
| 2026-04-26 19:56 | 58.41924 | -135.02961 | 11148 ft | 330 kts | 288° |
| 2026-04-26 19:57 | 58.42677 | -135.07156 | 11918 ft | 337 kts | 288° |
| 2026-04-26 19:57 | 58.43514 | -135.11366 | 12820 ft | 342 kts | 295° |
| 2026-04-26 19:57 | 58.44723 | -135.15304 | 13761 ft | 346 kts | 300° |
| 2026-04-26 19:57 | 58.46049 | -135.19184 | 14625 ft | 351 kts | 301° |
| 2026-04-26 19:58 | 58.47410 | -135.23095 | 15503 ft | 355 kts | 301° |
| 2026-04-26 19:58 | 58.48780 | -135.27056 | 16355 ft | 359 kts | 301° |
| 2026-04-26 19:58 | 58.50155 | -135.31080 | 17215 ft | 364 kts | 301° |
| 2026-04-26 19:58 | 58.51519 | -135.35117 | 18087 ft | 368 kts | 300° |
| 2026-04-26 19:59 | 58.52910 | -135.39262 | 18905 ft | 371 kts | 300° |
| 2026-04-26 19:59 | 58.54302 | -135.43433 | 19757 ft | 372 kts | 300° |
| 2026-04-26 19:59 | 58.55693 | -135.47614 | 20617 ft | 373 kts | 301° |
| 2026-04-26 19:59 | 58.57085 | -135.51815 | 21461 ft | 374 kts | 301° |
| 2026-04-26 20:00 | 58.58480 | -135.56035 | 22290 ft | 375 kts | 301° |
| 2026-04-26 20:00 | 58.59875 | -135.60265 | 23054 ft | 377 kts | 301° |
| 2026-04-26 20:00 | 58.61281 | -135.64538 | 23792 ft | 379 kts | 302° |
| 2026-04-26 20:00 | 58.62677 | -135.68782 | 24660 ft | 373 kts | 302° |
| 2026-04-26 20:01 | 58.64038 | -135.72928 | 25423 ft | 371 kts | 303° |
| 2026-04-26 20:01 | 58.65414 | -135.77125 | 26049 ft | 373 kts | 303° |
| 2026-04-26 20:01 | 58.66796 | -135.81355 | 26612 ft | 375 kts | 303° |
| 2026-04-26 20:01 | 58.68184 | -135.85606 | 27146 ft | 376 kts | 303° |
| 2026-04-26 20:02 | 58.69569 | -135.89861 | 27822 ft | 375 kts | 304° |
| 2026-04-26 20:02 | 58.70954 | -135.94106 | 28420 ft | 375 kts | 304° |
| 2026-04-26 20:02 | 58.72338 | -135.98375 | 28932 ft | 377 kts | 304° |
| 2026-04-26 20:02 | 58.73258 | -136.01216 | 29283 ft | 378 kts | 304° |
| 2026-04-26 20:03 | 58.75097 | -136.06910 | 29998 ft | 379 kts | 304° |
| 2026-04-26 20:03 | 58.76490 | -136.11225 | 30413 ft | 380 kts | 304° |
| 2026-04-26 20:03 | 58.77893 | -136.15577 | 30660 ft | 385 kts | 304° |
| 2026-04-26 20:03 | 58.79303 | -136.19963 | 31070 ft | 384 kts | 303° |
| 2026-04-26 20:04 | 58.80697 | -136.24380 | 31356 ft | 388 kts | 303° |
| 2026-04-26 20:04 | 58.82118 | -136.28814 | 31752 ft | 389 kts | 303° |
| 2026-04-26 20:04 | 58.83545 | -136.33257 | 32136 ft | 390 kts | 303° |
| 2026-04-26 20:04 | 58.84974 | -136.37716 | 32454 ft | 392 kts | 303° |
| 2026-04-26 20:05 | 58.86391 | -136.42151 | 32774 ft | 394 kts | 303° |
| 2026-04-26 20:05 | 58.87828 | -136.46650 | 33097 ft | 394 kts | 303° |
| 2026-04-26 20:05 | 58.89270 | -136.51182 | 33430 ft | 396 kts | 303° |
| 2026-04-26 20:05 | 58.90710 | -136.55729 | 33777 ft | 397 kts | 303° |
| 2026-04-26 20:06 | 58.92151 | -136.60290 | 34101 ft | 398 kts | 303° |
| 2026-04-26 20:06 | 58.93597 | -136.64876 | 34369 ft | 400 kts | 302° |
| 2026-04-26 20:06 | 58.95041 | -136.69464 | 34701 ft | 398 kts | 302° |
| 2026-04-26 20:06 | 58.96474 | -136.74030 | 35045 ft | 397 kts | 302° |
| 2026-04-26 20:07 | 58.97914 | -136.78619 | 35185 ft | 401 kts | 302° |
| 2026-04-26 20:07 | 58.99348 | -136.83201 | 35380 ft | 403 kts | 302° |
| 2026-04-26 20:07 | 59.00800 | -136.87848 | 35644 ft | 403 kts | 302° |
| 2026-04-26 20:07 | 59.02253 | -136.92512 | 35903 ft | 405 kts | 301° |
| 2026-04-26 20:08 | 59.03714 | -136.97193 | 36118 ft | 406 kts | 301° |
| 2026-04-26 20:08 | 59.05178 | -137.01900 | 36330 ft | 408 kts | 301° |
| 2026-04-26 20:08 | 59.06640 | -137.06624 | 36562 ft | 409 kts | 301° |
| 2026-04-26 20:08 | 59.08105 | -137.11365 | 36778 ft | 410 kts | 301° |
| 2026-04-26 20:09 | 59.09576 | -137.16137 | 36983 ft | 411 kts | 301° |
| 2026-04-26 20:09 | 59.11047 | -137.20915 | 37202 ft | 412 kts | 301° |
| 2026-04-26 20:09 | 59.12522 | -137.25710 | 37406 ft | 414 kts | 301° |
| 2026-04-26 20:09 | 59.13983 | -137.30458 | 37627 ft | 414 kts | 300° |
| 2026-04-26 20:10 | 59.15459 | -137.35287 | 37849 ft | 416 kts | 300° |
| 2026-04-26 20:10 | 59.16941 | -137.40142 | 38039 ft | 417 kts | 300° |
| 2026-04-26 20:10 | 59.18422 | -137.45005 | 38254 ft | 418 kts | 300° |
| 2026-04-26 20:10 | 59.19905 | -137.49884 | 38495 ft | 418 kts | 300° |
| 2026-04-26 20:11 | 59.21390 | -137.54777 | 38644 ft | 420 kts | 300° |
| 2026-04-26 20:11 | 59.22882 | -137.59696 | 38824 ft | 421 kts | 300° |
| 2026-04-26 20:11 | 59.24372 | -137.64624 | 38995 ft | 422 kts | 300° |
| 2026-04-26 20:12 | 59.27331 | -137.74448 | 39373 ft | 422 kts | 300° |
| 2026-04-26 20:12 | 59.28813 | -137.79384 | 39622 ft | 421 kts | 300° |
| 2026-04-26 20:12 | 59.30292 | -137.84312 | 39862 ft | 419 kts | 300° |
| 2026-04-26 20:12 | 59.31769 | -137.89251 | 39979 ft | 421 kts | 300° |
| 2026-04-26 20:13 | 59.33248 | -137.94209 | 40092 ft | 422 kts | 300° |
| 2026-04-26 20:13 | 59.36203 | -138.04144 | 40129 ft | 423 kts | 300° |
| 2026-04-26 20:14 | 59.39138 | -138.14049 | 40131 ft | 423 kts | 300° |
| 2026-04-26 20:14 | 59.42062 | -138.24048 | 40132 ft | 422 kts | 296° |
| 2026-04-26 20:15 | 59.44055 | -138.34871 | 40136 ft | 422 kts | 287° |
| 2026-04-26 20:15 | 59.45744 | -138.45913 | 40134 ft | 422 kts | 287° |
| 2026-04-26 20:16 | 59.47433 | -138.56865 | 40139 ft | 421 kts | 287° |
| 2026-04-26 20:16 | 59.49166 | -138.67873 | 40147 ft | 421 kts | 288° |
| 2026-04-26 20:17 | 59.50910 | -138.78880 | 40146 ft | 421 kts | 288° |
| 2026-04-26 20:17 | 59.52651 | -138.89900 | 40139 ft | 421 kts | 288° |
| 2026-04-26 20:18 | 59.54367 | -139.00835 | 40146 ft | 421 kts | 287° |
| 2026-04-26 20:18 | 59.56086 | -139.11860 | 40134 ft | 420 kts | 287° |
| 2026-04-26 20:19 | 59.57794 | -139.22885 | 40129 ft | 420 kts | 287° |
| 2026-04-26 20:19 | 59.59493 | -139.33924 | 40132 ft | 420 kts | 287° |
| 2026-04-26 20:20 | 59.61168 | -139.44882 | 40134 ft | 420 kts | 287° |
| 2026-04-26 20:20 | 59.62848 | -139.55936 | 40130 ft | 420 kts | 287° |
| 2026-04-26 20:21 | 59.64515 | -139.66984 | 40129 ft | 420 kts | 287° |
| 2026-04-26 20:21 | 59.66174 | -139.78052 | 40135 ft | 419 kts | 287° |
| 2026-04-26 20:22 | 59.67822 | -139.89116 | 40139 ft | 419 kts | 287° |
| 2026-04-26 20:22 | 59.69449 | -140.00110 | 40142 ft | 419 kts | 286° |
| 2026-04-26 20:23 | 59.71075 | -140.11176 | 40140 ft | 419 kts | 286° |
| 2026-04-26 20:23 | 59.72695 | -140.22277 | 40139 ft | 419 kts | 286° |
| 2026-04-26 20:24 | 59.74305 | -140.33377 | 40140 ft | 419 kts | 286° |
| 2026-04-26 20:24 | 59.75896 | -140.44424 | 40138 ft | 419 kts | 286° |
| 2026-04-26 20:25 | 59.77488 | -140.55555 | 40137 ft | 419 kts | 286° |
| 2026-04-26 20:25 | 59.79072 | -140.66702 | 40136 ft | 419 kts | 286° |
| 2026-04-26 20:26 | 59.80646 | -140.77859 | 40128 ft | 420 kts | 286° |
| 2026-04-26 20:26 | 59.82200 | -140.88954 | 40133 ft | 420 kts | 285° |
| 2026-04-26 20:27 | 59.83755 | -141.00131 | 40131 ft | 420 kts | 285° |
| 2026-04-26 20:27 | 59.85302 | -141.11326 | 40128 ft | 420 kts | 285° |
| 2026-04-26 20:28 | 59.86579 | -141.20634 | 40131 ft | 420 kts | 285° |
| 2026-04-26 20:28 | 59.88353 | -141.33648 | 40127 ft | 419 kts | 285° |
| 2026-04-26 20:29 | 59.89869 | -141.44861 | 40108 ft | 419 kts | 285° |
| 2026-04-26 20:29 | 59.91372 | -141.56055 | 40121 ft | 418 kts | 285° |
| 2026-04-26 20:30 | 59.92612 | -141.65350 | 40137 ft | 417 kts | 285° |
| 2026-04-26 20:30 | 59.94333 | -141.78344 | 40132 ft | 416 kts | 285° |
| 2026-04-26 20:31 | 59.95562 | -141.87697 | 40135 ft | 416 kts | 284° |
| 2026-04-26 20:31 | 59.97009 | -141.98777 | 40132 ft | 415 kts | 284° |
| 2026-04-26 20:32 | 59.98456 | -142.09938 | 40133 ft | 415 kts | 284° |
| 2026-04-26 20:32 | 60.00121 | -142.22893 | 40132 ft | 414 kts | 284° |
| 2026-04-26 20:33 | 60.01314 | -142.32236 | 40138 ft | 414 kts | 284° |
| 2026-04-26 20:33 | 60.02719 | -142.43321 | 40130 ft | 414 kts | 284° |
| 2026-04-26 20:34 | 60.04123 | -142.54483 | 40130 ft | 414 kts | 284° |
| 2026-04-26 20:34 | 60.05518 | -142.65648 | 40131 ft | 413 kts | 284° |
| 2026-04-26 20:35 | 60.06901 | -142.76811 | 40128 ft | 413 kts | 284° |
| 2026-04-26 20:35 | 60.08276 | -142.87991 | 40130 ft | 413 kts | 283° |
| 2026-04-26 20:36 | 60.09631 | -142.99099 | 40141 ft | 413 kts | 283° |
| 2026-04-26 20:36 | 60.10987 | -143.10295 | 40128 ft | 413 kts | 283° |
| 2026-04-26 20:37 | 60.12332 | -143.21486 | 40131 ft | 413 kts | 283° |
| 2026-04-26 20:37 | 60.13667 | -143.32693 | 40129 ft | 413 kts | 283° |
| 2026-04-26 20:38 | 60.14983 | -143.43820 | 40128 ft | 413 kts | 283° |
| 2026-04-26 20:38 | 60.16299 | -143.55034 | 40126 ft | 413 kts | 283° |
| 2026-04-26 20:39 | 60.17605 | -143.66254 | 40127 ft | 412 kts | 282° |
| 2026-04-26 20:39 | 60.18900 | -143.77473 | 40126 ft | 412 kts | 282° |
| 2026-04-26 20:40 | 60.20178 | -143.88629 | 40130 ft | 412 kts | 282° |
| 2026-04-26 20:40 | 60.21454 | -143.99865 | 40126 ft | 412 kts | 282° |
| 2026-04-26 20:41 | 60.22720 | -144.11102 | 40129 ft | 412 kts | 282° |
| 2026-04-26 20:41 | 60.23978 | -144.22362 | 40128 ft | 412 kts | 282° |
| 2026-04-26 20:42 | 60.25218 | -144.33557 | 40140 ft | 413 kts | 282° |
| 2026-04-26 20:42 | 60.26458 | -144.44843 | 40124 ft | 413 kts | 282° |
| 2026-04-26 20:43 | 60.27689 | -144.56143 | 40128 ft | 413 kts | 281° |
| 2026-04-26 20:43 | 60.28910 | -144.67445 | 40133 ft | 413 kts | 281° |
| 2026-04-26 20:44 | 60.30122 | -144.78764 | 40127 ft | 413 kts | 281° |
| 2026-04-26 20:44 | 60.31316 | -144.90009 | 40133 ft | 413 kts | 281° |
| 2026-04-26 20:45 | 60.32509 | -145.01338 | 40118 ft | 412 kts | 281° |
| 2026-04-26 20:45 | 60.33690 | -145.12665 | 40128 ft | 413 kts | 280° |
| 2026-04-26 20:46 | 60.34861 | -145.24000 | 40134 ft | 413 kts | 280° |
| 2026-04-26 20:46 | 60.36017 | -145.35280 | 40134 ft | 413 kts | 280° |
| 2026-04-26 20:47 | 60.37172 | -145.46655 | 40145 ft | 413 kts | 280° |
| 2026-04-26 20:47 | 60.38318 | -145.58050 | 40145 ft | 414 kts | 280° |
| 2026-04-26 20:48 | 60.39455 | -145.69452 | 40138 ft | 414 kts | 280° |
| 2026-04-26 20:48 | 60.40575 | -145.80800 | 40147 ft | 415 kts | 279° |
| 2026-04-26 20:49 | 60.41695 | -145.92247 | 40145 ft | 415 kts | 279° |
| 2026-04-26 20:49 | 60.42806 | -146.03713 | 40146 ft | 415 kts | 279° |
| 2026-04-26 20:50 | 60.43909 | -146.15202 | 40142 ft | 416 kts | 279° |
| 2026-04-26 20:50 | 60.45003 | -146.26705 | 40146 ft | 416 kts | 279° |
| 2026-04-26 20:51 | 60.46080 | -146.38139 | 40137 ft | 416 kts | 279° |
| 2026-04-26 20:51 | 60.47157 | -146.49672 | 40143 ft | 417 kts | 278° |
| 2026-04-26 20:52 | 60.48621 | -146.61042 | 40130 ft | 422 kts | 295° |
| 2026-04-26 20:52 | 60.51986 | -146.70876 | 40141 ft | 426 kts | 304° |
| 2026-04-26 20:53 | 60.55589 | -146.80359 | 40127 ft | 426 kts | 303° |
| 2026-04-26 20:53 | 60.59153 | -146.89983 | 40130 ft | 426 kts | 303° |
| 2026-04-26 20:54 | 60.62682 | -146.99672 | 40139 ft | 426 kts | 302° |
| 2026-04-26 20:54 | 60.66206 | -147.09456 | 39670 ft | 434 kts | 302° |
| 2026-04-26 20:54 | 60.67964 | -147.14438 | 39139 ft | 432 kts | 301° |
| 2026-04-26 20:55 | 60.69688 | -147.19352 | 38487 ft | 431 kts | 301° |
| 2026-04-26 20:55 | 60.71425 | -147.24314 | 37749 ft | 429 kts | 301° |
| 2026-04-26 20:55 | 60.73151 | -147.29251 | 37088 ft | 425 kts | 301° |
| 2026-04-26 20:55 | 60.74866 | -147.34161 | 36416 ft | 422 kts | 300° |
| 2026-04-26 20:56 | 60.76568 | -147.39040 | 35702 ft | 421 kts | 300° |
| 2026-04-26 20:56 | 60.78263 | -147.43908 | 34948 ft | 420 kts | 300° |
| 2026-04-26 20:56 | 60.79950 | -147.48764 | 34171 ft | 418 kts | 300° |
| 2026-04-26 20:56 | 60.81627 | -147.53596 | 33589 ft | 412 kts | 299° |
| 2026-04-26 20:57 | 60.83276 | -147.58354 | 32954 ft | 407 kts | 299° |
| 2026-04-26 20:57 | 60.84902 | -147.63057 | 32409 ft | 401 kts | 299° |
| 2026-04-26 20:57 | 60.86483 | -147.67641 | 31888 ft | 397 kts | 299° |
| 2026-04-26 20:57 | 60.88066 | -147.72242 | 31340 ft | 393 kts | 299° |
| 2026-04-26 20:58 | 60.89631 | -147.76803 | 30817 ft | 389 kts | 299° |
| 2026-04-26 20:58 | 60.91177 | -147.81317 | 30298 ft | 384 kts | 299° |
| 2026-04-26 20:58 | 60.92703 | -147.85782 | 29715 ft | 380 kts | 299° |
| 2026-04-26 20:58 | 60.94207 | -147.90201 | 29192 ft | 373 kts | 298° |
| 2026-04-26 20:59 | 60.95671 | -147.94568 | 28662 ft | 369 kts | 299° |
| 2026-04-26 20:59 | 60.97140 | -147.98881 | 28150 ft | 366 kts | 299° |
| 2026-04-26 20:59 | 60.98579 | -148.03092 | 27627 ft | 363 kts | 300° |
| 2026-04-26 20:59 | 61.00019 | -148.07319 | 27111 ft | 359 kts | 299° |
| 2026-04-26 21:00 | 61.01446 | -148.11527 | 26585 ft | 357 kts | 299° |
| 2026-04-26 21:00 | 61.02863 | -148.15716 | 26063 ft | 355 kts | 299° |
| 2026-04-26 21:00 | 61.04267 | -148.19882 | 25564 ft | 352 kts | 299° |
| 2026-04-26 21:00 | 61.05662 | -148.24028 | 25056 ft | 351 kts | 299° |
| 2026-04-26 21:01 | 61.07049 | -148.28159 | 24537 ft | 349 kts | 300° |
| 2026-04-26 21:01 | 61.08427 | -148.32276 | 24032 ft | 348 kts | 300° |
| 2026-04-26 21:01 | 61.09784 | -148.36335 | 23502 ft | 349 kts | 300° |
| 2026-04-26 21:01 | 61.11167 | -148.40481 | 22927 ft | 351 kts | 300° |
| 2026-04-26 21:02 | 61.12562 | -148.44662 | 22386 ft | 355 kts | 300° |
| 2026-04-26 21:02 | 61.13947 | -148.48905 | 21823 ft | 356 kts | 296° |
| 2026-04-26 21:02 | 61.14951 | -148.53496 | 21335 ft | 346 kts | 287° |
| 2026-04-26 21:02 | 61.15762 | -148.58156 | 20796 ft | 343 kts | 286° |
| 2026-04-26 21:03 | 61.16543 | -148.62812 | 20305 ft | 341 kts | 285° |
| 2026-04-26 21:03 | 61.17309 | -148.67377 | 19775 ft | 339 kts | 286° |
| 2026-04-26 21:03 | 61.18089 | -148.71969 | 19261 ft | 337 kts | 286° |
| 2026-04-26 21:03 | 61.18874 | -148.76534 | 18723 ft | 335 kts | 287° |
| 2026-04-26 21:04 | 61.19661 | -148.81080 | 18185 ft | 335 kts | 287° |
| 2026-04-26 21:04 | 61.20446 | -148.85612 | 17604 ft | 332 kts | 286° |
| 2026-04-26 21:04 | 61.21222 | -148.90100 | 17077 ft | 329 kts | 287° |
| 2026-04-26 21:04 | 61.21998 | -148.94541 | 16556 ft | 325 kts | 287° |
| 2026-04-26 21:05 | 61.22760 | -148.98937 | 16064 ft | 323 kts | 287° |
| 2026-04-26 21:05 | 61.23509 | -149.03303 | 15544 ft | 321 kts | 287° |
| 2026-04-26 21:05 | 61.24246 | -149.07591 | 15079 ft | 318 kts | 285° |
| 2026-04-26 21:05 | 61.24733 | -149.12021 | 14740 ft | 314 kts | 276° |
| 2026-04-26 21:06 | 61.24992 | -149.16525 | 14378 ft | 315 kts | 274° |
| 2026-04-26 21:06 | 61.25216 | -149.21063 | 14052 ft | 317 kts | 274° |
| 2026-04-26 21:06 | 61.25451 | -149.25647 | 13647 ft | 322 kts | 274° |
| 2026-04-26 21:06 | 61.25708 | -149.30283 | 13270 ft | 322 kts | 274° |
| 2026-04-26 21:07 | 61.25977 | -149.34901 | 12888 ft | 321 kts | 275° |
| 2026-04-26 21:07 | 61.26246 | -149.39470 | 12521 ft | 317 kts | 275° |
| 2026-04-26 21:07 | 61.26513 | -149.44005 | 12183 ft | 316 kts | 275° |
| 2026-04-26 21:07 | 61.26775 | -149.48530 | 11845 ft | 316 kts | 274° |
| 2026-04-26 21:08 | 61.27032 | -149.53000 | 11500 ft | 316 kts | 274° |
| 2026-04-26 21:08 | 61.27291 | -149.57526 | 11147 ft | 316 kts | 274° |
| 2026-04-26 21:08 | 61.27548 | -149.62058 | 10820 ft | 316 kts | 274° |
| 2026-04-26 21:08 | 61.27803 | -149.66552 | 10474 ft | 310 kts | 274° |
| 2026-04-26 21:09 | 61.28113 | -149.70953 | 10126 ft | 307 kts | 283° |
| 2026-04-26 21:09 | 61.29033 | -149.74901 | 9938 ft | 295 kts | 300° |
| 2026-04-26 21:09 | 61.30096 | -149.78405 | 9548 ft | 285 kts | 300° |
| 2026-04-26 21:09 | 61.31130 | -149.81852 | 9207 ft | 277 kts | 300° |
| 2026-04-26 21:10 | 61.32120 | -149.85202 | 8867 ft | 274 kts | 299° |
| 2026-04-26 21:10 | 61.33113 | -149.88591 | 8565 ft | 274 kts | 299° |
| 2026-04-26 21:10 | 61.34105 | -149.91990 | 8269 ft | 276 kts | 299° |
| 2026-04-26 21:10 | 61.35301 | -149.95102 | 8012 ft | 278 kts | 322° |
| 2026-04-26 21:11 | 61.37015 | -149.96892 | 7996 ft | 276 kts | 343° |
| 2026-04-26 21:11 | 61.38824 | -149.97940 | 7972 ft | 263 kts | 344° |
| 2026-04-26 21:11 | 61.40528 | -149.98988 | 7846 ft | 250 kts | 343° |
| 2026-04-26 21:11 | 61.42173 | -149.99997 | 7658 ft | 243 kts | 344° |
| 2026-04-26 21:12 | 61.43787 | -150.00971 | 7269 ft | 241 kts | 344° |
| 2026-04-26 21:12 | 61.45367 | -150.02003 | 6828 ft | 241 kts | 334° |
| 2026-04-26 21:12 | 61.46573 | -150.04322 | 6323 ft | 237 kts | 297° |
| 2026-04-26 21:12 | 61.47312 | -150.07375 | 5832 ft | 234 kts | 294° |
| 2026-04-26 21:13 | 61.47902 | -150.10512 | 5324 ft | 230 kts | 274° |
| 2026-04-26 21:13 | 61.47565 | -150.13638 | 4863 ft | 219 kts | 232° |
| 2026-04-26 21:13 | 61.46413 | -150.15572 | 4368 ft | 213 kts | 200° |
| 2026-04-26 21:13 | 61.44979 | -150.15982 | 4007 ft | 207 kts | 172° |
| 2026-04-26 21:14 | 61.43586 | -150.15235 | 3710 ft | 208 kts | 162° |
| 2026-04-26 21:14 | 61.42196 | -150.14332 | 3407 ft | 211 kts | 162° |
| 2026-04-26 21:14 | 61.40806 | -150.13436 | 3089 ft | 212 kts | 163° |
| 2026-04-26 21:14 | 61.39404 | -150.12488 | 3021 ft | 213 kts | 162° |
| 2026-04-26 21:15 | 61.37991 | -150.11574 | 2992 ft | 212 kts | 163° |
| 2026-04-26 21:15 | 61.36580 | -150.10751 | 2967 ft | 210 kts | 165° |
| 2026-04-26 21:15 | 61.35178 | -150.09961 | 2790 ft | 207 kts | 164° |
| 2026-04-26 21:15 | 61.33802 | -150.09192 | 2582 ft | 203 kts | 164° |
| 2026-04-26 21:16 | 61.32440 | -150.08425 | 2377 ft | 203 kts | 165° |
| 2026-04-26 21:16 | 61.31080 | -150.07670 | 2168 ft | 202 kts | 164° |
| 2026-04-26 21:16 | 61.29778 | -150.06657 | 1944 ft | 203 kts | 161° |
| 2026-04-26 21:16 | 61.28377 | -150.06303 | 1772 ft | 204 kts | 175° |
| 2026-04-26 21:17 | 61.27039 | -150.05687 | 1553 ft | 188 kts | 159° |
| 2026-04-26 21:17 | 61.25861 | -150.04710 | 1242 ft | 176 kts | 160° |
| 2026-04-26 21:17 | 61.24732 | -150.04000 | 1056 ft | 161 kts | 167° |
| 2026-04-26 21:17 | 61.23736 | -150.03605 | 968 ft | 135 kts | 166° |
| 2026-04-26 21:18 | 61.22877 | -150.03050 | 708 ft | 126 kts | 162° |
| 2026-04-26 21:18 | 61.22019 | -150.02591 | 673 ft | 127 kts | 166° |
| 2026-04-26 21:18 | 61.21152 | -150.02088 | 469 ft | 134 kts | 162° |
| 2026-04-26 21:18 | 61.20252 | -150.01598 | 283 ft | 133 kts | 163° |
| 2026-04-26 21:19 | 61.19357 | -150.01099 | 156 ft | 129 kts | 163° |
| 2026-04-26 21:19 | 61.18620 | -150.00694 | 132 ft | 81 kts | 165° |
| 2026-04-26 21:19 | 61.18214 | -150.00460 | 124 ft | 53 kts | 164° |
| 2026-04-26 21:19 | 61.17923 | -150.00260 | 118 ft | 29 kts | 147° |
| 2026-04-26 21:20 | 61.17793 | -150.00021 | 124 ft | 20 kts | 134° |
| 2026-04-26 21:20 | 61.17709 | -149.99860 | 114 ft | 13 kts | 143° |
| 2026-04-26 21:20 | 61.17655 | -149.99717 | 115 ft | 13 kts | 91° |
| 2026-04-26 21:20 | 61.17687 | -149.99528 | 109 ft | 15 kts | 72° |
| 2026-04-26 21:21 | 61.17723 | -149.99314 | 105 ft | 17 kts | 70° |
| 2026-04-26 21:21 | 61.17720 | -149.99139 | 102 ft | 12 kts | 139° |
| 2026-04-26 21:21 | 61.17675 | -149.99075 | 102 ft | 6 kts | 116° |
| 2026-04-26 21:21 | 61.17669 | -149.98982 | 102 ft | 9 kts | 85° |
| 2026-04-26 21:22 | 61.17690 | -149.98846 | 103 ft | 11 kts | 73° |
| 2026-04-26 21:22 | 61.17654 | -149.98727 | 103 ft | 11 kts | 159° |
| 2026-04-26 21:22 | 61.17580 | -149.98672 | 104 ft | 11 kts | 160° |
| 2026-04-26 21:23 | 61.17461 | -149.98541 | 107 ft | 8 kts | 94° |
| 2026-04-26 21:23 | 61.17467 | -149.98439 | 109 ft | 4 kts | 82° |
| 2026-04-26 21:23 | 61.17469 | -149.98417 | 109 ft | 0 kts | 81° |